sensor_id;sensor_type;location;lat;lon;timestamp;pressure;altitude;pressure_sealevel;temperature;humidity
57234;BME280;43090;52.604;13.318;2022-10-16T00:00:36;100578.59;;;14.44;100.00
57234;BME280;43090;52.604;13.318;2022-10-16T00:03:06;100590.97;;;14.56;100.00
57234;BME280;43090;52.604;13.318;2022-10-16T00:05:39;100616.84;;;14.69;100.00
57234;BME280;43090;52.604;13.318;2022-10-16T00:08:07;100613.41;;;14.66;100.00
57234;BME280;43090;52.604;13.318;2022-10-16T00:10:34;100623.38;;;14.76;100.00
57234;BME280;43090;52.604;13.318;2022-10-16T00:13:03;100605.63;;;14.73;100.00
57234;BME280;43090;52.604;13.318;2022-10-16T00:15:33;100620.25;;;14.80;100.00
57234;BME280;43090;52.604;13.318;2022-10-16T00:18:03;100592.69;;;14.67;100.00
57234;BME280;43090;52.604;13.318;2022-10-16T00:20:34;100617.00;;;14.77;100.00
57234;BME280;43090;52.604;13.318;2022-10-16T00:23:12;100617.97;;;14.76;100.00
57234;BME280;43090;52.604;13.318;2022-10-16T00:26:13;100576.53;;;14.67;100.00
57234;BME280;43090;52.604;13.318;2022-10-16T00:28:40;100631.03;;;14.90;100.00
57234;BME280;43090;52.604;13.318;2022-10-16T00:31:10;100641.34;;;14.65;100.00
57234;BME280;43090;52.604;13.318;2022-10-16T00:33:38;100623.13;;;14.58;100.00
57234;BME280;43090;52.604;13.318;2022-10-16T00:36:07;100643.09;;;14.96;100.00
57234;BME280;43090;52.604;13.318;2022-10-16T00:38:34;100629.47;;;14.97;100.00
57234;BME280;43090;52.604;13.318;2022-10-16T00:41:05;100651.06;;;15.07;99.92
57234;BME280;43090;52.604;13.318;2022-10-16T00:43:45;100635.34;;;15.12;100.00
57234;BME280;43090;52.604;13.318;2022-10-16T00:46:27;100608.94;;;14.96;100.00
57234;BME280;43090;52.604;13.318;2022-10-16T00:49:04;100617.13;;;14.85;100.00
57234;BME280;43090;52.604;13.318;2022-10-16T00:51:34;100615.31;;;14.95;100.00
57234;BME280;43090;52.604;13.318;2022-10-16T00:54:02;100628.06;;;14.93;99.90
57234;BME280;43090;52.604;13.318;2022-10-16T00:56:31;100644.25;;;15.03;99.95
57234;BME280;43090;52.604;13.318;2022-10-16T00:58:59;100626.38;;;14.92;99.11
57234;BME280;43090;52.604;13.318;2022-10-16T01:01:28;100607.19;;;14.76;99.07
57234;BME280;43090;52.604;13.318;2022-10-16T01:03:54;100646.09;;;15.03;98.54
57234;BME280;43090;52.604;13.318;2022-10-16T01:09:19;100653.88;;;14.96;99.39
57234;BME280;43090;52.604;13.318;2022-10-16T01:12:11;100633.31;;;14.85;100.00
57234;BME280;43090;52.604;13.318;2022-10-16T01:17:18;100608.31;;;14.63;100.00
57234;BME280;43090;52.604;13.318;2022-10-16T01:22:30;100606.06;;;14.78;100.00
57234;BME280;43090;52.604;13.318;2022-10-16T01:25:07;100638.72;;;15.05;100.00
57234;BME280;43090;52.604;13.318;2022-10-16T01:27:36;100642.69;;;15.01;100.00
57234;BME280;43090;52.604;13.318;2022-10-16T01:30:17;100669.50;;;15.02;100.00
57234;BME280;43090;52.604;13.318;2022-10-16T01:33:09;100662.00;;;15.15;100.00
57234;BME280;43090;52.604;13.318;2022-10-16T01:35:43;100668.53;;;15.13;100.00
57234;BME280;43090;52.604;13.318;2022-10-16T01:38:19;100664.41;;;15.09;99.66
57234;BME280;43090;52.604;13.318;2022-10-16T01:40:51;100669.06;;;15.07;100.00
57234;BME280;43090;52.604;13.318;2022-10-16T01:43:22;100654.63;;;15.08;98.86
57234;BME280;43090;52.604;13.318;2022-10-16T01:45:54;100657.41;;;14.87;100.00
57234;BME280;43090;52.604;13.318;2022-10-16T01:48:23;100671.38;;;15.21;100.00
57234;BME280;43090;52.604;13.318;2022-10-16T01:51:08;100650.38;;;15.15;99.41
57234;BME280;43090;52.604;13.318;2022-10-16T01:53:36;100659.72;;;15.30;98.91
57234;BME280;43090;52.604;13.318;2022-10-16T01:56:06;100654.34;;;15.30;97.65
57234;BME280;43090;52.604;13.318;2022-10-16T01:58:37;100659.19;;;15.27;95.82
57234;BME280;43090;52.604;13.318;2022-10-16T02:01:07;100675.63;;;15.24;98.91
57234;BME280;43090;52.604;13.318;2022-10-16T02:03:40;100654.91;;;15.05;99.27
57234;BME280;43090;52.604;13.318;2022-10-16T02:06:09;100673.06;;;15.22;97.86
57234;BME280;43090;52.604;13.318;2022-10-16T02:08:36;100675.06;;;15.10;98.40
57234;BME280;43090;52.604;13.318;2022-10-16T02:11:05;100671.47;;;14.90;99.76
57234;BME280;43090;52.604;13.318;2022-10-16T02:13:44;100687.25;;;15.05;100.00
57234;BME280;43090;52.604;13.318;2022-10-16T02:16:12;100687.00;;;15.18;98.82
57234;BME280;43090;52.604;13.318;2022-10-16T02:18:43;100686.28;;;15.06;99.72
57234;BME280;43090;52.604;13.318;2022-10-16T02:21:22;100715.53;;;15.20;100.00
57234;BME280;43090;52.604;13.318;2022-10-16T02:26:42;100680.72;;;15.07;98.61
57234;BME280;43090;52.604;13.318;2022-10-16T02:29:12;100678.03;;;15.17;98.05
57234;BME280;43090;52.604;13.318;2022-10-16T02:31:48;100673.22;;;15.21;96.91
57234;BME280;43090;52.604;13.318;2022-10-16T02:34:16;100665.97;;;15.02;97.36
57234;BME280;43090;52.604;13.318;2022-10-16T02:36:45;100726.91;;;15.33;96.15
57234;BME280;43090;52.604;13.318;2022-10-16T02:39:14;100726.63;;;15.27;95.14
57234;BME280;43090;52.604;13.318;2022-10-16T02:41:41;100682.16;;;15.11;95.90
57234;BME280;43090;52.604;13.318;2022-10-16T02:44:07;100709.69;;;15.15;97.80
57234;BME280;43090;52.604;13.318;2022-10-16T02:46:34;100709.00;;;15.23;97.37
57234;BME280;43090;52.604;13.318;2022-10-16T02:49:00;100708.69;;;15.06;96.05
57234;BME280;43090;52.604;13.318;2022-10-16T02:51:27;100718.75;;;15.04;97.48
57234;BME280;43090;52.604;13.318;2022-10-16T02:53:53;100700.00;;;15.03;96.19
57234;BME280;43090;52.604;13.318;2022-10-16T02:56:20;100698.88;;;14.95;98.37
57234;BME280;43090;52.604;13.318;2022-10-16T02:58:46;100701.03;;;15.02;98.54
57234;BME280;43090;52.604;13.318;2022-10-16T03:01:13;100693.19;;;14.98;98.51
57234;BME280;43090;52.604;13.318;2022-10-16T03:03:40;100707.56;;;15.09;97.76
57234;BME280;43090;52.604;13.318;2022-10-16T03:06:07;100726.72;;;15.25;97.53
57234;BME280;43090;52.604;13.318;2022-10-16T03:08:33;100680.88;;;15.06;97.09
57234;BME280;43090;52.604;13.318;2022-10-16T03:11:00;100703.59;;;15.13;96.24
57234;BME280;43090;52.604;13.318;2022-10-16T03:13:26;100710.25;;;15.19;95.90
57234;BME280;43090;52.604;13.318;2022-10-16T03:15:53;100721.03;;;14.99;97.77
57234;BME280;43090;52.604;13.318;2022-10-16T03:18:19;100737.84;;;15.32;96.05
57234;BME280;43090;52.604;13.318;2022-10-16T03:20:46;100740.38;;;15.33;95.99
57234;BME280;43090;52.604;13.318;2022-10-16T03:23:12;100740.94;;;15.27;95.34
57234;BME280;43090;52.604;13.318;2022-10-16T03:25:39;100741.22;;;15.24;95.04
57234;BME280;43090;52.604;13.318;2022-10-16T03:28:05;100743.94;;;15.24;95.30
57234;BME280;43090;52.604;13.318;2022-10-16T03:30:32;100726.19;;;15.22;95.13
57234;BME280;43090;52.604;13.318;2022-10-16T03:32:58;100723.63;;;15.20;95.06
57234;BME280;43090;52.604;13.318;2022-10-16T03:35:25;100720.19;;;15.08;95.51
57234;BME280;43090;52.604;13.318;2022-10-16T03:37:52;100752.00;;;15.24;95.32
57234;BME280;43090;52.604;13.318;2022-10-16T03:40:19;100724.13;;;14.94;95.11
57234;BME280;43090;52.604;13.318;2022-10-16T03:42:48;100727.78;;;14.83;95.77
57234;BME280;43090;52.604;13.318;2022-10-16T03:45:14;100709.59;;;14.76;95.66
57234;BME280;43090;52.604;13.318;2022-10-16T03:47:41;100753.09;;;14.92;96.54
57234;BME280;43090;52.604;13.318;2022-10-16T03:50:08;100753.63;;;14.86;96.34
57234;BME280;43090;52.604;13.318;2022-10-16T03:52:35;100787.41;;;15.00;96.55
57234;BME280;43090;52.604;13.318;2022-10-16T03:55:02;100759.22;;;14.63;97.61
57234;BME280;43090;52.604;13.318;2022-10-16T03:57:28;100757.94;;;14.68;98.00
57234;BME280;43090;52.604;13.318;2022-10-16T04:00:01;100789.50;;;14.87;97.57
57234;BME280;43090;52.604;13.318;2022-10-16T04:02:27;100787.25;;;14.92;98.50
57234;BME280;43090;52.604;13.318;2022-10-16T04:04:54;100783.50;;;14.73;99.35
57234;BME280;43090;52.604;13.318;2022-10-16T04:07:21;100794.41;;;14.72;100.00
57234;BME280;43090;52.604;13.318;2022-10-16T04:09:50;100779.16;;;14.82;98.36
57234;BME280;43090;52.604;13.318;2022-10-16T04:12:26;100783.03;;;14.47;100.00
57234;BME280;43090;52.604;13.318;2022-10-16T04:15:20;100773.25;;;14.46;100.00
57234;BME280;43090;52.604;13.318;2022-10-16T04:18:08;100756.38;;;14.44;100.00
57234;BME280;43090;52.604;13.318;2022-10-16T04:21:05;100752.84;;;14.43;99.81
57234;BME280;43090;52.604;13.318;2022-10-16T04:23:45;100772.41;;;14.45;100.00
57234;BME280;43090;52.604;13.318;2022-10-16T04:26:32;100796.94;;;14.63;100.00
57234;BME280;43090;52.604;13.318;2022-10-16T04:29:29;100745.69;;;14.11;100.00
57234;BME280;43090;52.604;13.318;2022-10-16T04:35:41;100762.38;;;14.26;100.00
57234;BME280;43090;52.604;13.318;2022-10-16T04:38:45;100766.84;;;14.16;100.00
57234;BME280;43090;52.604;13.318;2022-10-16T04:41:26;100795.22;;;14.41;100.00
57234;BME280;43090;52.604;13.318;2022-10-16T04:44:18;100743.16;;;14.10;100.00
57234;BME280;43090;52.604;13.318;2022-10-16T04:47:01;100748.38;;;13.90;100.00
57234;BME280;43090;52.604;13.318;2022-10-16T04:49:35;100725.19;;;13.89;100.00
57234;BME280;43090;52.604;13.318;2022-10-16T04:52:18;100736.03;;;14.09;100.00
57234;BME280;43090;52.604;13.318;2022-10-16T04:54:58;100748.72;;;14.18;99.60
57234;BME280;43090;52.604;13.318;2022-10-16T04:57:39;100754.69;;;14.22;99.79
57234;BME280;43090;52.604;13.318;2022-10-16T05:00:20;100790.22;;;14.37;99.66
57234;BME280;43090;52.604;13.318;2022-10-16T05:06:40;100752.75;;;13.81;100.00
57234;BME280;43090;52.604;13.318;2022-10-16T05:12:08;100771.44;;;13.83;99.41
57234;BME280;43090;52.604;13.318;2022-10-16T05:18:32;100807.38;;;13.93;100.00
57234;BME280;43090;52.604;13.318;2022-10-16T05:21:14;100826.88;;;14.07;100.00
57234;BME280;43090;52.604;13.318;2022-10-16T05:23:47;100792.97;;;13.83;100.00
57234;BME280;43090;52.604;13.318;2022-10-16T05:26:26;100772.34;;;13.72;100.00
57234;BME280;43090;52.604;13.318;2022-10-16T05:29:10;100777.25;;;13.67;100.00
57234;BME280;43090;52.604;13.318;2022-10-16T05:31:49;100803.13;;;13.79;100.00
57234;BME280;43090;52.604;13.318;2022-10-16T05:34:29;100830.84;;;13.91;100.00
57234;BME280;43090;52.604;13.318;2022-10-16T05:37:27;100816.44;;;13.81;100.00
57234;BME280;43090;52.604;13.318;2022-10-16T05:39:58;100807.97;;;13.64;100.00
57234;BME280;43090;52.604;13.318;2022-10-16T05:42:32;100808.44;;;13.70;100.00
57234;BME280;43090;52.604;13.318;2022-10-16T05:45:25;100803.28;;;13.66;100.00
57234;BME280;43090;52.604;13.318;2022-10-16T05:47:59;100856.28;;;13.98;100.00
57234;BME280;43090;52.604;13.318;2022-10-16T05:50:49;100804.22;;;13.77;100.00
57234;BME280;43090;52.604;13.318;2022-10-16T05:53:27;100795.19;;;13.78;100.00
57234;BME280;43090;52.604;13.318;2022-10-16T05:56:11;100817.50;;;14.01;100.00
57234;BME280;43090;52.604;13.318;2022-10-16T05:59:11;100822.00;;;14.00;100.00
57234;BME280;43090;52.604;13.318;2022-10-16T06:01:46;100816.63;;;14.00;100.00
57234;BME280;43090;52.604;13.318;2022-10-16T06:04:37;100825.75;;;14.09;100.00
57234;BME280;43090;52.604;13.318;2022-10-16T06:07:12;100852.88;;;14.18;100.00
57234;BME280;43090;52.604;13.318;2022-10-16T06:09:43;100851.63;;;14.22;100.00
57234;BME280;43090;52.604;13.318;2022-10-16T06:12:28;100804.88;;;14.02;100.00
57234;BME280;43090;52.604;13.318;2022-10-16T06:15:06;100810.38;;;14.00;100.00
57234;BME280;43090;52.604;13.318;2022-10-16T06:18:00;100836.09;;;14.25;100.00
57234;BME280;43090;52.604;13.318;2022-10-16T06:20:37;100844.50;;;14.32;100.00
57234;BME280;43090;52.604;13.318;2022-10-16T06:23:10;100813.00;;;14.32;100.00
57234;BME280;43090;52.604;13.318;2022-10-16T06:26:19;100868.69;;;14.64;100.00
57234;BME280;43090;52.604;13.318;2022-10-16T06:29:20;100859.63;;;14.65;100.00
57234;BME280;43090;52.604;13.318;2022-10-16T06:31:57;100818.63;;;14.41;100.00
57234;BME280;43090;52.604;13.318;2022-10-16T06:34:38;100808.69;;;14.41;100.00
57234;BME280;43090;52.604;13.318;2022-10-16T06:40:41;100859.75;;;14.64;100.00
57234;BME280;43090;52.604;13.318;2022-10-16T06:44:08;100850.84;;;14.52;100.00
57234;BME280;43090;52.604;13.318;2022-10-16T06:46:57;100852.06;;;14.59;100.00
57234;BME280;43090;52.604;13.318;2022-10-16T06:49:52;100858.91;;;14.63;100.00
57234;BME280;43090;52.604;13.318;2022-10-16T06:52:46;100880.94;;;14.57;100.00
57234;BME280;43090;52.604;13.318;2022-10-16T06:55:42;100848.63;;;14.57;100.00
57234;BME280;43090;52.604;13.318;2022-10-16T06:58:44;100870.69;;;14.93;100.00
57234;BME280;43090;52.604;13.318;2022-10-16T07:01:45;100887.41;;;15.18;100.00
57234;BME280;43090;52.604;13.318;2022-10-16T07:16:46;100893.63;;;15.09;99.10
57234;BME280;43090;52.604;13.318;2022-10-16T07:19:25;100911.28;;;15.23;99.17
57234;BME280;43090;52.604;13.318;2022-10-16T07:21:57;100918.69;;;15.30;100.00
57234;BME280;43090;52.604;13.318;2022-10-16T07:24:24;100895.66;;;15.26;100.00
57234;BME280;43090;52.604;13.318;2022-10-16T07:26:51;100888.22;;;15.09;100.00
57234;BME280;43090;52.604;13.318;2022-10-16T07:29:21;100932.84;;;15.54;100.00
57234;BME280;43090;52.604;13.318;2022-10-16T07:31:51;100907.66;;;15.43;100.00
57234;BME280;43090;52.604;13.318;2022-10-16T07:42:05;100931.56;;;15.48;97.79
57234;BME280;43090;52.604;13.318;2022-10-16T07:44:35;100885.19;;;15.33;97.42
57234;BME280;43090;52.604;13.318;2022-10-16T07:47:05;100931.88;;;15.74;96.35
57234;BME280;43090;52.604;13.318;2022-10-16T07:49:32;100933.69;;;15.85;96.71
57234;BME280;43090;52.604;13.318;2022-10-16T07:51:59;100922.00;;;15.85;96.63
57234;BME280;43090;52.604;13.318;2022-10-16T07:54:25;100925.72;;;15.93;97.08
57234;BME280;43090;52.604;13.318;2022-10-16T07:57:12;100892.13;;;15.66;97.07
57234;BME280;43090;52.604;13.318;2022-10-16T07:59:53;100929.03;;;15.66;95.53
57234;BME280;43090;52.604;13.318;2022-10-16T08:02:32;100928.19;;;15.75;94.01
57234;BME280;43090;52.604;13.318;2022-10-16T08:04:59;100927.41;;;15.85;93.20
57234;BME280;43090;52.604;13.318;2022-10-16T08:07:56;100969.22;;;16.10;94.69
57234;BME280;43090;52.604;13.318;2022-10-16T08:18:14;100929.31;;;15.73;97.44
57234;BME280;43090;52.604;13.318;2022-10-16T08:20:56;100961.53;;;15.95;98.32
57234;BME280;43090;52.604;13.318;2022-10-16T08:23:39;100951.16;;;15.81;100.00
57234;BME280;43090;52.604;13.318;2022-10-16T08:26:08;100934.81;;;15.82;98.20
57234;BME280;43090;52.604;13.318;2022-10-16T08:28:35;100937.25;;;16.05;95.94
57234;BME280;43090;52.604;13.318;2022-10-16T08:31:08;100975.94;;;16.25;94.81
57234;BME280;43090;52.604;13.318;2022-10-16T08:37:06;100922.59;;;15.98;93.97
57234;BME280;43090;52.604;13.318;2022-10-16T08:39:59;100940.94;;;16.04;95.72
57234;BME280;43090;52.604;13.318;2022-10-16T08:57:16;100986.47;;;16.28;93.28
57234;BME280;43090;52.604;13.318;2022-10-16T09:27:04;100985.50;;;16.49;90.74
57234;BME280;43090;52.604;13.318;2022-10-16T09:29:51;100992.31;;;16.53;90.05
57234;BME280;43090;52.604;13.318;2022-10-16T09:32:33;100987.47;;;16.47;90.40
57234;BME280;43090;52.604;13.318;2022-10-16T09:36:02;101016.50;;;16.74;89.75
57234;BME280;43090;52.604;13.318;2022-10-16T09:39:12;100979.09;;;16.70;89.10
57234;BME280;43090;52.604;13.318;2022-10-16T09:42:00;100992.19;;;16.64;88.70
57234;BME280;43090;52.604;13.318;2022-10-16T09:44:50;101026.03;;;16.78;89.11
57234;BME280;43090;52.604;13.318;2022-10-16T09:47:27;101015.22;;;16.69;90.06
57234;BME280;43090;52.604;13.318;2022-10-16T10:12:57;101011.81;;;16.76;87.04
57234;BME280;43090;52.604;13.318;2022-10-16T10:15:41;101031.44;;;17.08;85.37
57234;BME280;43090;52.604;13.318;2022-10-16T10:18:17;101023.19;;;16.99;85.15
57234;BME280;43090;52.604;13.318;2022-10-16T10:39:41;101069.72;;;17.32;84.20
57234;BME280;43090;52.604;13.318;2022-10-16T10:42:32;101077.53;;;17.45;82.84
57234;BME280;43090;52.604;13.318;2022-10-16T10:45:25;101054.00;;;17.46;82.93
57234;BME280;43090;52.604;13.318;2022-10-16T13:26:07;101156.97;;;20.11;58.08
57234;BME280;43090;52.604;13.318;2022-10-16T13:29:14;101183.94;;;20.05;56.55
57234;BME280;43090;52.604;13.318;2022-10-16T13:32:11;101185.06;;;20.20;55.80
57234;BME280;43090;52.604;13.318;2022-10-16T13:53:18;101151.31;;;19.60;56.33
57234;BME280;43090;52.604;13.318;2022-10-16T14:53:35;101188.44;;;18.97;55.09
57234;BME280;43090;52.604;13.318;2022-10-16T14:59:43;101203.72;;;18.98;55.24
57234;BME280;43090;52.604;13.318;2022-10-16T15:02:35;101215.34;;;19.09;54.19
57234;BME280;43090;52.604;13.318;2022-10-16T15:06:32;101210.00;;;18.99;54.24
57234;BME280;43090;52.604;13.318;2022-10-16T15:09:15;101216.06;;;18.83;55.26
57234;BME280;43090;52.604;13.318;2022-10-16T15:12:04;101238.84;;;19.18;53.44
57234;BME280;43090;52.604;13.318;2022-10-16T15:19:10;101199.69;;;18.75;53.78
57234;BME280;43090;52.604;13.318;2022-10-16T15:22:04;101233.50;;;18.80;54.90
57234;BME280;43090;52.604;13.318;2022-10-16T15:25:33;101255.78;;;18.74;55.52
57234;BME280;43090;52.604;13.318;2022-10-16T15:29:09;101261.75;;;18.50;55.91
57234;BME280;43090;52.604;13.318;2022-10-16T15:32:20;101231.59;;;18.25;56.59
57234;BME280;43090;52.604;13.318;2022-10-16T15:35:09;101271.72;;;18.59;56.68
57234;BME280;43090;52.604;13.318;2022-10-16T15:37:58;101228.66;;;18.46;56.05
57234;BME280;43090;52.604;13.318;2022-10-16T15:41:40;101224.38;;;17.96;58.30
57234;BME280;43090;52.604;13.318;2022-10-16T15:44:41;101249.13;;;18.21;57.32
57234;BME280;43090;52.604;13.318;2022-10-16T15:47:27;101268.88;;;18.04;58.22
57234;BME280;43090;52.604;13.318;2022-10-16T15:50:06;101246.06;;;17.96;57.99
57234;BME280;43090;52.604;13.318;2022-10-16T16:01:01;101291.09;;;17.58;61.33
57234;BME280;43090;52.604;13.318;2022-10-16T22:12:33;101668.66;;;11.89;93.26
57234;BME280;43090;52.604;13.318;2022-10-16T22:15:19;101679.47;;;11.88;93.83
57234;BME280;43090;52.604;13.318;2022-10-16T22:18:56;101633.44;;;11.95;94.02
57234;BME280;43090;52.604;13.318;2022-10-16T22:22:06;101647.19;;;11.75;94.01
57234;BME280;43090;52.604;13.318;2022-10-16T22:24:43;101639.06;;;11.91;93.58
57234;BME280;43090;52.604;13.318;2022-10-16T22:27:46;101652.84;;;11.70;94.17
57234;BME280;43090;52.604;13.318;2022-10-16T22:30:44;101619.69;;;11.71;94.00
57234;BME280;43090;52.604;13.318;2022-10-16T22:33:25;101669.22;;;11.94;92.62
57234;BME280;43090;52.604;13.318;2022-10-16T22:36:11;101659.31;;;11.96;93.15
57234;BME280;43090;52.604;13.318;2022-10-16T22:46:39;101643.59;;;11.45;93.63
57234;BME280;43090;52.604;13.318;2022-10-16T22:49:20;101641.38;;;11.23;96.82
57234;BME280;43090;52.604;13.318;2022-10-16T22:51:53;101649.59;;;11.79;92.80
57234;BME280;43090;52.604;13.318;2022-10-16T23:01:48;101694.13;;;11.67;94.53
57234;BME280;43090;52.604;13.318;2022-10-16T23:04:23;101663.75;;;11.53;93.83
57234;BME280;43090;52.604;13.318;2022-10-16T23:06:57;101713.94;;;11.95;94.21
57234;BME280;43090;52.604;13.318;2022-10-16T23:09:29;101670.75;;;11.55;94.23
57234;BME280;43090;52.604;13.318;2022-10-16T23:12:00;101664.38;;;11.42;95.70
57234;BME280;43090;52.604;13.318;2022-10-16T23:14:27;101660.81;;;11.41;96.52
57234;BME280;43090;52.604;13.318;2022-10-16T23:16:54;101705.47;;;11.87;96.71
57234;BME280;43090;52.604;13.318;2022-10-16T23:19:21;101668.16;;;11.68;95.95
57234;BME280;43090;52.604;13.318;2022-10-16T23:21:52;101699.66;;;11.95;95.74
57234;BME280;43090;52.604;13.318;2022-10-16T23:36:16;101682.84;;;11.91;95.87
57234;BME280;43090;52.604;13.318;2022-10-16T23:38:52;101669.28;;;12.09;93.86
57234;BME280;43090;52.604;13.318;2022-10-16T23:41:27;101663.13;;;11.92;94.14
57234;BME280;43090;52.604;13.318;2022-10-16T23:43:57;101676.00;;;12.16;93.10
57234;BME280;43090;52.604;13.318;2022-10-16T23:46:37;101666.94;;;12.46;90.15
57234;BME280;43090;52.604;13.318;2022-10-16T23:52:10;101671.56;;;12.44;89.31
57234;BME280;43090;52.604;13.318;2022-10-16T23:55:07;101669.75;;;12.01;92.17
57234;BME280;43090;52.604;13.318;2022-10-16T23:57:49;101702.06;;;12.14;94.71
